Time;durP1;ratioP1;P1;durP2;ratioP2;P2;SDS_P1;SDS_P2;PMS_P1;PMS_P2;Temp;Humidity;BMP_temperature;BMP_pressure;BME280_temperature;BME280_humidity;BME280_pressure;Samples;Min_cycle;Max_cycle;Signal;HPM_P1;HPM_P2
2023/09/08 00:00:57;;;;;;;6.80;5.30;;;;;;;-145.68;100.00;74377.38;10457102;28;20227;-70
2023/09/08 00:05:57;;;;;;;9.63;5.68;;;;;;;-145.68;100.00;74375.38;10456297;28;20230;-69
2023/09/08 00:10:58;;;;;;;7.53;5.05;;;;;;;-145.68;100.00;74377.38;10456839;28;20184;-70
2023/09/08 00:15:58;;;;;;;9.05;5.40;;;;;;;-145.68;100.00;74393.34;10456278;28;20208;-70
2023/09/08 00:20:58;;;;;;;9.17;5.73;;;;;;;-145.68;100.00;74397.34;10456260;28;20208;-69
2023/09/08 00:25:59;;;;;;;6.45;5.07;;;;;;;-145.68;100.00;74415.34;10455824;28;20199;-70
2023/09/08 00:31:00;;;;;;;13.63;5.70;;;;;;;-145.68;100.00;74415.34;10456019;28;20302;-70
2023/09/08 00:36:00;;;;;;;8.07;5.70;;;;;;;-145.68;100.00;74411.34;10455518;28;21104;-70
2023/09/08 00:41:01;;;;;;;9.03;5.90;;;;;;;-145.68;100.00;74423.34;10454976;28;20223;-69
2023/09/08 00:46:02;;;;;;;12.53;7.30;;;;;;;-145.68;100.00;74395.34;10455291;28;20306;-68
2023/09/08 00:51:04;;;;;;;7.15;5.78;;;;;;;-145.68;100.00;74423.34;10454946;28;20677;-69
2023/09/08 00:56:05;;;;;;;8.37;6.00;;;;;;;-145.68;100.00;74449.34;10453687;28;20200;-70
2023/09/08 01:01:06;;;;;;;10.97;5.83;;;;;;;-145.68;100.00;74439.34;10454078;28;20238;-69
2023/09/08 01:06:06;;;;;;;7.80;6.20;;;;;;;-145.68;100.00;74441.34;10453820;28;20231;-70
2023/09/08 01:11:07;;;;;;;12.10;6.73;;;;;;;-145.68;100.00;74441.34;10413228;28;20184;-70
2023/09/08 01:16:07;;;;;;;8.20;6.73;;;;;;;-145.68;100.00;74439.34;10415046;28;20209;-70
2023/09/08 01:21:27;;;;;;;9.93;6.93;;;;;;;-145.68;100.00;74461.34;10430598;28;20219;-69
2023/09/08 01:26:31;;;;;;;11.07;6.90;;;;;;;-145.68;100.00;74461.34;10437643;28;20211;-69
2023/09/08 01:31:32;;;;;;;8.57;6.67;;;;;;;-145.68;100.00;74467.31;10414795;28;20181;-69
2023/09/08 01:36:34;;;;;;;10.50;6.90;;;;;;;-145.68;100.00;74463.31;10414640;28;20235;-69
2023/09/08 01:41:34;;;;;;;12.50;7.07;;;;;;;-145.68;100.00;74473.31;10440141;28;20330;-70
2023/09/08 01:46:35;;;;;;;9.23;7.40;;;;;;;-145.68;100.00;74475.31;10452739;28;20608;-70
2023/09/08 01:51:35;;;;;;;9.37;6.77;;;;;;;-145.68;100.00;74471.31;10451505;28;20557;-69
2023/09/08 01:56:35;;;;;;;11.80;7.13;;;;;;;-145.68;100.00;74471.31;10452095;28;20258;-70
2023/09/08 02:01:36;;;;;;;9.83;7.53;;;;;;;-145.68;100.00;74473.31;10451163;28;20220;-69
2023/09/08 02:06:37;;;;;;;10.33;7.43;;;;;;;-145.68;100.00;74479.31;10408083;28;20232;-69
2023/09/08 02:11:37;;;;;;;12.70;7.80;;;;;;;-145.68;100.00;74475.31;10413162;28;20230;-70
2023/09/08 02:16:37;;;;;;;11.87;7.67;;;;;;;-145.68;100.00;74463.31;10415504;28;20222;-70
2023/09/08 02:21:38;;;;;;;12.03;8.20;;;;;;;-145.68;100.00;74455.34;10451241;28;20261;-69
2023/09/08 02:26:38;;;;;;;11.07;7.70;;;;;;;-145.68;100.00;74467.31;10450011;28;20196;-70
2023/09/08 02:31:40;;;;;;;8.97;7.13;;;;;;;-145.68;100.00;74487.31;10449895;28;20556;-69
2023/09/08 02:36:42;;;;;;;14.30;9.97;;;;;;;-145.68;100.00;74499.31;10449487;28;20200;-70
2023/09/08 02:41:42;;;;;;;11.23;9.50;;;;;;;-145.68;100.00;74481.31;10449329;28;20207;-70
2023/09/08 02:46:43;;;;;;;15.87;10.83;;;;;;;-145.68;100.00;74477.31;10450492;28;20287;-68
2023/09/08 02:51:44;;;;;;;16.10;10.63;;;;;;;-145.68;100.00;74467.31;10449192;28;20187;-70
2023/09/08 02:56:44;;;;;;;13.90;10.73;;;;;;;-145.68;100.00;74479.31;10448685;28;20207;-69
2023/09/08 03:01:45;;;;;;;18.00;10.33;;;;;;;-145.68;100.00;74477.31;10448718;28;20748;-69
2023/09/08 03:06:45;;;;;;;12.77;9.47;;;;;;;-145.68;100.00;74473.31;10469735;22;20277;-64
2023/09/08 03:11:47;;;;;;;15.77;10.03;;;;;;;-145.68;100.00;74469.31;10448149;28;20184;-64
2023/09/08 03:16:47;;;;;;;11.07;8.83;;;;;;;-145.68;100.00;74467.31;10477565;28;20319;-64
2023/09/08 03:21:47;;;;;;;11.17;8.67;;;;;;;-145.68;100.00;74455.34;10490808;28;20305;-65
2023/09/08 03:26:48;;;;;;;12.83;9.30;;;;;;;-145.68;100.00;74455.34;10491004;28;20206;-65
2023/09/08 03:31:48;;;;;;;15.60;9.47;;;;;;;-145.68;100.00;74449.34;10490416;28;20183;-65
2023/09/08 03:36:49;;;;;;;13.00;9.50;;;;;;;-145.68;100.00;74451.34;10490059;28;20336;-65
2023/09/08 03:41:49;;;;;;;11.17;8.97;;;;;;;-145.68;100.00;74433.34;10489768;28;20211;-65
2023/09/08 03:46:51;;;;;;;12.63;9.10;;;;;;;-145.68;100.00;74435.34;10488565;28;20664;-65
2023/09/08 03:51:51;;;;;;;11.37;9.60;;;;;;;-145.68;100.00;74447.34;10451076;28;20184;-65
2023/09/08 03:56:52;;;;;;;12.07;9.37;;;;;;;-145.68;100.00;74441.34;10488705;28;20286;-64
2023/09/08 04:01:52;;;;;;;12.60;10.40;;;;;;;-145.68;100.00;74447.34;10488626;28;20238;-65
2023/09/08 04:06:53;;;;;;;12.57;10.50;;;;;;;-145.68;100.00;74461.34;10488215;28;20269;-65
2023/09/08 04:11:54;;;;;;;14.50;10.67;;;;;;;-145.68;100.00;74467.31;10488759;28;20183;-65
2023/09/08 04:16:55;;;;;;;16.03;9.97;;;;;;;-145.68;100.00;74461.34;10488101;28;20638;-65
2023/09/08 04:21:56;;;;;;;16.77;10.23;;;;;;;-145.68;100.00;74461.34;10488275;28;20222;-64
2023/09/08 04:26:56;;;;;;;14.00;10.77;;;;;;;-145.68;100.00;74473.31;10488143;28;20211;-64
2023/09/08 04:31:58;;;;;;;13.63;10.27;;;;;;;-145.68;100.00;74481.31;10487875;28;20669;-64
2023/09/08 04:36:58;;;;;;;14.63;10.20;;;;;;;-145.68;100.00;74487.31;10479069;28;20223;-64
2023/09/08 04:41:58;;;;;;;18.47;12.97;;;;;;;-145.68;100.00;74487.31;10449091;28;20222;-64
2023/09/08 04:46:59;;;;;;;15.00;10.77;;;;;;;-145.68;100.00;74493.31;10455756;28;20212;-64
2023/09/08 04:52:00;;;;;;;13.73;11.15;;;;;;;-145.68;100.00;74495.31;10484392;28;20199;-64
2023/09/08 04:57:02;;;;;;;15.60;10.70;;;;;;;-145.68;100.00;74515.31;10494593;28;20203;-65
2023/09/08 05:02:03;;;;;;;14.87;10.87;;;;;;;-145.68;100.00;74515.31;10496071;28;20219;-64
2023/09/08 05:07:03;;;;;;;12.37;9.63;;;;;;;-145.68;100.00;74509.31;10493928;28;20237;-64
2023/09/08 05:12:05;;;;;;;12.00;9.80;;;;;;;-145.68;100.00;74515.31;10494417;28;20236;-64
2023/09/08 05:17:06;;;;;;;12.20;9.27;;;;;;;-145.68;100.00;74483.31;10493898;28;20207;-64
2023/09/08 05:22:07;;;;;;;12.70;9.40;;;;;;;-145.68;100.00;74481.31;10493753;28;20271;-64
2023/09/08 05:27:08;;;;;;;11.50;9.25;;;;;;;-145.68;100.00;74465.31;10493681;28;20305;-64
2023/09/08 05:32:09;;;;;;;13.88;9.35;;;;;;;-145.68;100.00;74471.31;10493358;28;20186;-63
2023/09/08 05:37:12;;;;;;;10.77;9.05;;;;;;;-145.68;100.00;74325.38;10493359;28;20645;-64
2023/09/08 05:42:12;;;;;;;10.52;8.10;;;;;;;-145.68;100.00;74187.44;10492906;28;20348;-63
2023/09/08 05:47:13;;;;;;;10.25;7.70;;;;;;;-145.68;100.00;74059.50;10492574;28;20218;-64
2023/09/08 05:52:13;;;;;;;8.85;6.93;;;;;;;-145.68;100.00;74019.50;10457292;28;20180;-64
2023/09/08 05:57:15;;;;;;;9.85;6.88;;;;;;;-145.68;100.00;73879.59;10491778;28;20758;-64
2023/09/08 06:02:16;;;;;;;11.43;6.40;;;;;;;-145.68;100.00;73779.63;10492371;28;20184;-65
2023/09/08 06:07:17;;;;;;;8.43;6.10;;;;;;;-145.68;90.25;73745.66;10475021;28;20238;-65
2023/09/08 06:12:17;;;;;;;8.35;5.50;;;;;;;-145.68;85.11;73581.75;10457886;28;20199;-65
2023/09/08 06:17:18;;;;;;;8.45;6.03;;;;;;;-145.68;79.19;73517.78;10454171;28;20204;-65
2023/09/08 06:22:18;;;;;;;7.85;5.55;;;;;;;-145.68;75.19;73511.78;10454031;28;20188;-65
2023/09/08 06:27:19;;;;;;;10.88;5.65;;;;;;;-145.68;73.91;73445.81;10475211;28;20303;-65
2023/09/08 06:32:19;;;;;;;7.63;5.45;;;;;;;-145.68;71.13;73409.84;10452424;28;20282;-64
2023/09/08 06:37:22;;;;;;;5.65;5.00;;;;;;;-145.68;67.78;73259.94;10452316;28;20218;-65
2023/09/08 06:42:22;;;;;;;6.93;5.68;;;;;;;-145.68;67.33;73267.94;10452013;28;20191;-65
2023/09/08 06:47:30;;;;;;;8.70;5.20;;;;;;;-145.68;64.03;73223.97;10464587;28;20214;-65
2023/09/08 06:52:31;;;;;;;9.95;5.82;;;;;;;-145.68;62.88;73120.03;10491837;28;20274;-65
2023/09/08 06:57:32;;;;;;;9.25;5.63;;;;;;;-145.68;59.72;73002.13;10479592;28;20598;-65
2023/09/08 07:02:33;;;;;;;6.78;4.70;;;;;;;-145.68;58.27;72946.16;10486416;28;20182;-65
2023/09/08 07:07:37;;;;;;;8.30;5.20;;;;;;;-145.68;57.73;72934.19;10477130;28;20234;-65
2023/09/08 07:12:38;;;;;;;9.73;5.50;;;;;;;-145.68;56.28;72860.22;10447592;28;20725;-65
2023/09/08 07:17:38;;;;;;;14.25;5.57;;;;;;;-145.68;56.38;72880.22;10448977;28;20220;-65
2023/09/08 07:22:39;;;;;;;7.60;5.40;;;;;;;-145.68;55.42;72804.28;10450317;28;20323;-65
2023/09/08 07:27:40;;;;;;;10.75;4.93;;;;;;;-145.68;56.72;72780.28;10476115;28;20211;-66
2023/09/08 07:32:41;;;;;;;7.78;4.68;;;;;;;-145.68;52.71;72616.44;10487657;28;20191;-66
2023/09/08 07:37:42;;;;;;;8.35;4.80;;;;;;;-145.68;51.24;72546.47;10471910;28;20915;-65
2023/09/08 07:42:43;;;;;;;9.60;4.97;;;;;;;-145.68;50.03;72484.53;10450374;28;20183;-65
2023/09/08 07:47:45;;;;;;;9.27;4.45;;;;;;;-145.68;44.72;72502.53;10486382;28;20195;-66
2023/09/08 07:52:46;;;;;;;6.45;4.53;;;;;;;-145.68;45.46;72544.50;10476886;28;20192;-66
2023/09/08 07:57:46;;;;;;;5.28;3.95;;;;;;;-145.68;44.52;72544.50;10448376;28;20215;-66
2023/09/08 08:02:52;;;;;;;6.95;4.03;;;;;;;-145.68;44.79;72550.47;10453117;28;20192;-66
2023/09/08 08:07:52;;;;;;;4.20;3.78;;;;;;;-145.68;38.81;72284.72;10452654;28;20242;-66
2023/09/08 08:12:53;;;;;;;6.13;3.85;;;;;;;-145.68;39.84;72512.50;10448531;28;20191;-65
2023/09/08 08:17:53;;;;;;;6.78;3.40;;;;;;;-145.68;37.41;72286.72;10450475;28;20282;-67
2023/09/08 08:22:54;;;;;;;8.65;3.80;;;;;;;-145.68;36.36;72348.66;10472074;28;20273;-66
2023/09/08 08:27:56;;;;;;;4.60;3.60;;;;;;;-145.68;37.80;72464.56;10495339;28;20206;-66
2023/09/08 08:32:56;;;;;;;5.32;3.80;;;;;;;-145.68;36.96;72376.63;10490445;28;20187;-66
2023/09/08 08:38:00;;;;;;;6.80;4.70;;;;;;;-145.68;35.79;72252.75;10495309;28;20647;-66
2023/09/08 08:43:00;;;;;;;4.80;3.78;;;;;;;-145.68;36.09;72200.78;10495486;28;20249;-66
2023/09/08 08:48:02;;;;;;;6.90;4.15;;;;;;;-145.68;37.49;72492.53;10494879;28;20746;-66
2023/09/08 08:53:02;;;;;;;5.18;3.50;;;;;;;-145.68;37.08;72392.63;10493530;28;20191;-66
2023/09/08 08:58:04;;;;;;;6.30;3.70;;;;;;;-145.68;36.90;72416.59;10493452;28;20215;-66
2023/09/08 09:03:05;;;;;;;6.63;3.90;;;;;;;-145.68;37.16;72464.56;10492078;28;20195;-66
2023/09/08 09:08:06;;;;;;;4.53;3.90;;;;;;;-145.68;37.92;72540.50;10446626;22;20337;-70
2023/09/08 09:13:07;;;;;;;7.20;3.67;;;;;;;-145.68;39.17;72580.47;10330177;28;20277;-70
2023/09/08 09:18:08;;;;;;;8.05;3.83;;;;;;;-145.68;36.98;72340.66;10331643;28;20218;-70
2023/09/08 09:23:09;;;;;;;12.57;4.35;;;;;;;-145.68;37.44;72520.50;10329681;28;20212;-70
2023/09/08 09:28:10;;;;;;;5.88;3.65;;;;;;;-145.68;38.32;72582.44;10330370;28;20218;-69
2023/09/08 09:33:10;;;;;;;6.03;3.90;;;;;;;-145.68;37.33;72518.50;10329694;28;20688;-69
2023/09/08 09:38:11;;;;;;;6.18;3.50;;;;;;;-145.68;37.76;72490.53;10326448;28;20708;-70
2023/09/08 09:43:13;;;;;;;5.28;3.40;;;;;;;-145.68;36.89;72400.59;10329729;28;20649;-70
2023/09/08 09:48:13;;;;;;;7.72;3.72;;;;;;;-145.68;36.61;72476.53;10329289;28;20309;-68
2023/09/08 09:53:16;;;;;;;5.40;3.92;;;;;;;-145.68;37.64;72436.56;10329590;28;20190;-69
2023/09/08 09:58:18;;;;;;;7.85;3.67;;;;;;;-145.68;35.32;72298.69;10328333;28;20727;-70
2023/09/08 10:03:19;;;;;;;5.95;3.85;;;;;;;-145.68;35.86;72288.72;10328254;28;20186;-70
2023/09/08 10:08:19;;;;;;;6.07;3.60;;;;;;;-145.68;36.13;72444.56;10325439;28;20268;-70
2023/09/08 10:13:31;;;;;;;5.68;3.70;;;;;;;-145.68;36.21;72356.66;10321975;28;20237;-70
2023/09/08 10:18:33;;;;;;;7.57;4.25;;;;;;;-145.68;35.91;72322.69;10322683;28;20217;-71
2023/09/08 10:23:40;;;;;;;5.93;3.80;;;;;;;-145.68;35.52;72410.59;10327840;28;20202;-70
2023/09/08 10:28:41;;;;;;;9.57;4.03;;;;;;;-145.68;35.60;72272.72;10327091;28;20214;-70
2023/09/08 10:33:42;;;;;;;5.85;3.55;;;;;;;-145.68;35.12;72300.69;10328406;28;20281;-70
2023/09/08 10:38:47;;;;;;;4.32;3.47;;;;;;;-145.68;35.10;72352.66;10319191;28;20666;-69
2023/09/08 10:43:58;;;;;;;7.00;3.70;;;;;;;-145.68;34.40;72280.72;10324910;28;20245;-69
2023/09/08 10:49:03;;;;;;;6.10;3.75;;;;;;;-145.68;34.05;72298.69;10324786;28;20205;-69
2023/09/08 10:54:05;;;;;;;6.35;3.42;;;;;;;-145.68;34.31;72308.69;10303531;28;20198;-69
2023/09/08 10:59:06;;;;;;;9.63;3.65;;;;;;;-145.68;35.18;72342.66;10319773;28;20219;-69
2023/09/08 11:04:09;;;;;;;5.15;3.88;;;;;;;-145.68;34.57;72308.69;10295342;28;20190;-69
2023/09/08 11:09:10;;;;;;;4.72;3.03;;;;;;;-145.68;34.25;72288.72;10291747;28;20668;-70
2023/09/08 11:14:11;;;;;;;4.20;3.10;;;;;;;-145.68;32.53;72116.88;10321184;28;20206;-70
2023/09/08 11:19:12;;;;;;;6.38;3.55;;;;;;;-145.68;31.27;71933.03;10327193;28;20292;-70
2023/09/08 11:24:14;;;;;;;3.60;3.08;;;;;;;-145.68;31.21;71941.03;10319593;28;20276;-69
2023/09/08 11:29:15;;;;;;;6.35;3.13;;;;;;;-145.68;31.36;71996.97;10324983;28;20202;-70
2023/09/08 11:34:16;;;;;;;5.25;3.50;;;;;;;-145.68;31.78;72054.94;10325308;28;20196;-70
2023/09/08 11:39:16;;;;;;;4.55;3.28;;;;;;;-145.68;32.20;72114.88;10326092;28;20214;-70
2023/09/08 11:44:18;;;;;;;5.63;3.25;;;;;;;-145.68;33.36;72264.72;10321831;28;20190;-70
2023/09/08 11:49:20;;;;;;;6.10;3.00;;;;;;;-145.68;33.00;72180.81;10326321;28;20299;-70
2023/09/08 11:54:20;;;;;;;6.07;3.38;;;;;;;-145.68;33.53;72194.78;10323486;28;20197;-70
2023/09/08 11:59:21;;;;;;;4.88;3.25;;;;;;;-145.68;32.94;72268.72;10334044;28;20233;-69
2023/09/08 12:04:21;;;;;;;6.28;3.00;;;;;;;-145.68;32.88;72208.78;10333795;28;20190;-69
2023/09/08 12:09:22;;;;;;;5.10;3.00;;;;;;;-145.68;32.80;72134.84;10334106;28;20328;-70
2023/09/08 12:14:22;;;;;;;6.75;2.67;;;;;;;-145.68;33.49;72262.72;10333676;28;20713;-70
2023/09/08 12:19:30;;;;;;;3.88;2.83;;;;;;;-145.68;33.29;72240.75;10329201;28;20222;-70
2023/09/08 12:25:09;;;;;;;5.15;3.53;;;;;;;-145.68;32.16;72116.88;10333459;28;20622;-69
2023/09/08 12:30:16;;;;;;;5.63;3.00;;;;;;;-145.68;32.46;72102.88;10286467;28;20222;-70
2023/09/08 12:35:22;;;;;;;6.90;3.33;;;;;;;-145.68;31.99;72134.84;10323631;28;20552;-69
2023/09/08 12:40:22;;;;;;;2.90;2.60;;;;;;;-145.68;31.38;72124.88;10332726;28;20296;-68
2023/09/08 12:45:25;;;;;;;3.63;3.03;;;;;;;-145.68;31.54;72224.78;10332149;28;20541;-70
2023/09/08 12:50:25;;;;;;;4.65;3.08;;;;;;;-145.68;31.40;72080.91;10327451;28;20210;-69
2023/09/08 12:55:26;;;;;;;5.05;3.00;;;;;;;-145.68;31.88;72068.91;10331377;28;20194;-70
2023/09/08 13:00:27;;;;;;;3.75;3.17;;;;;;;-145.68;32.64;72202.78;10328213;28;20606;-71
2023/09/08 13:05:28;;;;;;;4.90;3.10;;;;;;;-145.68;32.04;72162.81;10330788;28;20190;-71
2023/09/08 13:10:28;;;;;;;8.30;3.38;;;;;;;-145.68;32.26;72120.88;10319896;28;20242;-72
2023/09/08 13:15:29;;;;;;;3.42;2.97;;;;;;;-145.68;31.69;72082.91;10306682;28;20207;-70
2023/09/08 13:20:29;;;;;;;5.55;3.80;;;;;;;-145.68;32.69;72196.78;10285978;28;20693;-70
2023/09/08 13:25:29;;;;;;;5.60;3.10;;;;;;;-145.68;33.28;72202.78;10331446;28;20197;-71
2023/09/08 13:30:30;;;;;;;7.90;3.08;;;;;;;-145.68;32.03;72108.88;10325853;28;20204;-71
2023/09/08 13:35:30;;;;;;;4.90;3.58;;;;;;;-145.68;32.18;72098.88;10330684;28;20277;-71
2023/09/08 13:40:31;;;;;;;6.10;3.42;;;;;;;-145.68;32.23;72084.91;10330591;28;20604;-70
2023/09/08 13:45:31;;;;;;;11.00;3.28;;;;;;;-145.68;32.63;72148.84;10330428;28;20200;-69
2023/09/08 13:50:32;;;;;;;4.45;3.45;;;;;;;-145.68;32.55;72062.91;10329588;28;20290;-70
2023/09/08 13:55:32;;;;;;;6.10;2.95;;;;;;;-145.68;32.23;72066.91;10327053;28;20190;-70
2023/09/08 14:00:32;;;;;;;6.13;3.85;;;;;;;-145.68;33.43;72090.91;10330279;28;20218;-69
2023/09/08 14:05:33;;;;;;;8.13;3.05;;;;;;;-145.68;31.77;72040.94;10318299;28;20725;-70
2023/09/08 14:10:33;;;;;;;4.72;3.25;;;;;;;-145.68;31.82;71851.13;10295340;28;20581;-71
2023/09/08 14:15:33;;;;;;;8.70;3.20;;;;;;;-145.68;29.30;71573.41;10290452;28;20198;-70
2023/09/08 14:20:34;;;;;;;6.50;3.10;;;;;;;-145.68;30.00;71917.06;10290326;28;20697;-70
2023/09/08 14:25:35;;;;;;;4.05;2.70;;;;;;;-145.68;30.40;71865.13;10294682;28;20449;-70
2023/09/08 14:30:35;;;;;;;5.43;2.92;;;;;;;-145.68;31.06;71929.06;10328124;28;20214;-70
2023/09/08 14:35:41;;;;;;;9.38;3.30;;;;;;;-145.68;31.23;71971.00;10325043;28;20206;-70
2023/09/08 14:40:41;;;;;;;7.50;3.35;;;;;;;-145.68;31.61;71899.09;10325265;28;20221;-70
2023/09/08 14:45:42;;;;;;;7.10;3.07;;;;;;;-145.68;31.00;71815.16;10328017;28;20626;-69
2023/09/08 14:50:42;;;;;;;4.07;3.67;;;;;;;-145.68;30.60;71771.22;10327375;28;20519;-69
2023/09/08 14:55:44;;;;;;;7.07;3.60;;;;;;;-145.68;30.16;71667.31;10312465;28;20278;-69
2023/09/08 15:00:45;;;;;;;7.38;3.25;;;;;;;-145.68;30.88;71777.22;10312744;28;20620;-70
2023/09/08 15:05:46;;;;;;;3.83;3.20;;;;;;;-145.68;29.59;71673.31;10288235;28;20683;-70
2023/09/08 15:10:46;;;;;;;3.67;3.17;;;;;;;-145.68;30.01;71645.34;10288438;28;20245;-69
2023/09/08 15:21:13;;;;;;;8.93;3.58;;;;;;;-145.68;31.18;71729.25;10281173;28;20713;-64
2023/09/08 15:26:14;;;;;;;5.43;3.55;;;;;;;-145.68;28.93;71385.63;10286481;28;20210;-65
2023/09/08 15:31:17;;;;;;;6.90;3.60;;;;;;;-145.68;29.11;71469.53;10318419;28;20186;-65
2023/09/08 15:36:18;;;;;;;6.57;3.15;;;;;;;-145.68;28.67;71235.81;10324334;28;20931;-65
2023/09/08 15:41:18;;;;;;;7.70;3.83;;;;;;;-145.68;30.05;71643.34;10323547;28;20213;-64
2023/09/08 15:46:19;;;;;;;5.20;3.65;;;;;;;-145.68;31.21;71769.22;10323584;28;20250;-65
2023/09/08 15:51:19;;;;;;;5.82;3.67;;;;;;;-145.68;30.25;71529.47;10324821;28;20182;-65
2023/09/08 15:56:20;;;;;;;5.57;3.92;;;;;;;-145.68;31.38;71783.19;10325164;28;20209;-64
2023/09/08 16:01:20;;;;;;;7.57;3.63;;;;;;;-145.68;32.56;71953.03;10325207;28;20205;-64
2023/09/08 16:06:20;;;;;;;5.75;3.65;;;;;;;-145.68;32.36;71885.09;10298469;28;20209;-64
2023/09/08 16:11:21;;;;;;;5.63;4.10;;;;;;;-145.68;31.26;71755.22;10324881;28;20190;-65
2023/09/08 16:16:21;;;;;;;6.33;4.07;;;;;;;-145.68;31.54;71733.25;10324275;28;20599;-64
2023/09/08 16:21:22;;;;;;;6.03;4.00;;;;;;;-145.68;32.74;71919.06;10324804;28;20485;-64
2023/09/08 16:26:22;;;;;;;6.78;3.95;;;;;;;-145.68;32.96;71865.13;10324571;28;20244;-65
2023/09/08 16:31:23;;;;;;;4.60;3.88;;;;;;;-145.68;34.86;72104.88;10324745;28;20640;-64
2023/09/08 16:36:23;;;;;;;5.30;4.37;;;;;;;-145.68;37.58;72352.66;10324347;28;20682;-65
2023/09/08 16:41:23;;;;;;;6.35;4.25;;;;;;;-145.68;39.25;72488.53;10330108;28;20892;-65
2023/09/08 16:46:24;;;;;;;6.93;3.95;;;;;;;-145.68;39.93;72512.50;10331770;28;20537;-65
2023/09/08 16:51:24;;;;;;;5.43;4.60;;;;;;;-145.68;39.92;72490.53;10331517;28;20611;-65
2023/09/08 16:56:24;;;;;;;10.90;4.97;;;;;;;-145.68;40.80;72550.47;10331364;28;20232;-65
2023/09/08 17:01:25;;;;;;;8.90;5.13;;;;;;;-145.68;42.74;72598.44;10331068;28;20280;-65
2023/09/08 17:06:25;;;;;;;7.82;4.35;;;;;;;-145.68;44.41;72644.41;10331067;28;20214;-65
2023/09/08 17:11:26;;;;;;;5.15;4.65;;;;;;;-145.68;46.58;72784.28;10330840;28;20186;-65
2023/09/08 17:16:26;;;;;;;10.23;7.85;;;;;;;-145.68;47.50;72778.28;10330533;28;20229;-65
2023/09/08 17:21:27;;;;;;;16.55;7.75;;;;;;;-145.68;48.93;72860.22;10330231;28;20218;-65
2023/09/08 17:26:28;;;;;;;27.95;19.45;;;;;;;-145.68;50.61;72944.16;10330182;28;20623;-65
2023/09/08 17:31:30;;;;;;;24.73;15.90;;;;;;;-145.68;52.17;73044.09;10330387;28;20194;-65
2023/09/08 17:36:32;;;;;;;19.73;14.25;;;;;;;-145.68;53.35;73068.06;10330582;28;20218;-65
2023/09/08 17:41:32;;;;;;;16.25;9.90;;;;;;;-145.68;54.29;73098.06;10330105;28;20222;-65
2023/09/08 17:46:33;;;;;;;13.50;7.70;;;;;;;-145.68;55.74;73122.03;10329687;28;20638;-67
2023/09/08 17:51:33;;;;;;;9.90;6.00;;;;;;;-145.68;57.33;73158.00;10328826;28;20274;-65
2023/09/08 17:56:34;;;;;;;7.63;5.22;;;;;;;-145.68;58.61;73190.00;10329026;28;20220;-66
2023/09/08 18:01:36;;;;;;;6.70;5.38;;;;;;;-145.68;59.56;73211.97;10328455;28;20334;-65
2023/09/08 18:06:37;;;;;;;9.77;4.80;;;;;;;-145.68;60.52;73247.97;10328745;28;20218;-65
2023/09/08 18:11:37;;;;;;;10.02;5.35;;;;;;;-145.68;61.85;73267.94;10328499;28;20241;-65
2023/09/08 18:16:37;;;;;;;12.80;6.63;;;;;;;-145.68;62.79;73291.94;10328292;28;20280;-66
2023/09/08 18:21:38;;;;;;;11.00;6.18;;;;;;;-145.68;63.92;73321.91;10327807;28;20712;-65
2023/09/08 18:26:38;;;;;;;7.47;5.40;;;;;;;-145.68;65.14;73345.88;10327970;28;20308;-64
2023/09/08 18:31:40;;;;;;;13.30;5.45;;;;;;;-145.68;66.87;73377.88;10327839;28;20178;-64
2023/09/08 18:36:41;;;;;;;10.48;6.00;;;;;;;-145.68;68.86;73399.84;10327377;28;20313;-65
2023/09/08 18:41:41;;;;;;;8.65;5.10;;;;;;;-145.68;69.94;73403.84;10327455;28;20214;-65
2023/09/08 18:46:42;;;;;;;14.48;6.15;;;;;;;-145.68;70.82;73433.84;10327012;28;20590;-64
2023/09/08 18:51:42;;;;;;;11.57;5.90;;;;;;;-145.68;72.10;73447.81;10322222;28;20536;-65
2023/09/08 18:56:42;;;;;;;9.02;5.93;;;;;;;-145.68;73.23;73461.81;10287444;28;20264;-65
2023/09/08 19:01:43;;;;;;;12.20;5.82;;;;;;;-145.68;74.31;73487.81;10285744;28;20214;-64
2023/09/08 19:06:43;;;;;;;7.90;5.88;;;;;;;-145.68;75.34;73509.78;10286523;28;20216;-65
2023/09/08 19:11:44;;;;;;;9.60;6.50;;;;;;;-145.68;76.23;73515.78;10286328;28;20711;-65
2023/09/08 19:16:44;;;;;;;15.15;6.30;;;;;;;-145.68;77.05;73513.78;10287156;28;20705;-65
2023/09/08 19:21:44;;;;;;;9.20;6.45;;;;;;;-145.68;76.39;73515.78;10286869;28;20281;-65
2023/09/08 19:26:45;;;;;;;7.90;5.35;;;;;;;-145.68;75.76;73523.78;10288648;28;20225;-65
2023/09/08 19:31:45;;;;;;;11.85;5.53;;;;;;;-145.68;76.79;73533.78;10288533;28;20209;-64
2023/09/08 19:36:45;;;;;;;7.10;5.78;;;;;;;-145.68;79.05;73579.75;10313747;28;20300;-64
2023/09/08 19:41:46;;;;;;;8.00;5.57;;;;;;;-145.68;80.71;73571.75;10325776;28;20272;-64
2023/09/08 19:46:46;;;;;;;14.07;5.82;;;;;;;-145.68;80.20;73565.75;10325426;28;20210;-64
2023/09/08 19:51:46;;;;;;;9.05;5.93;;;;;;;-145.68;80.18;73567.75;10325863;28;20193;-64
2023/09/08 19:56:47;;;;;;;9.63;6.32;;;;;;;-145.68;83.04;73603.72;10325180;28;20217;-65
2023/09/08 20:01:48;;;;;;;8.45;6.10;;;;;;;-145.68;84.70;73613.72;10322111;28;20236;-64
2023/09/08 20:06:51;;;;;;;9.18;6.13;;;;;;;-145.68;85.44;73615.72;10281056;28;20202;-64
2023/09/08 20:11:51;;;;;;;12.13;6.07;;;;;;;-145.68;85.98;73615.72;10278991;28;20685;-64
2023/09/08 20:16:52;;;;;;;8.30;5.82;;;;;;;-145.68;86.37;73623.72;10288310;28;20246;-64
2023/09/08 20:21:52;;;;;;;10.57;6.20;;;;;;;-145.68;87.94;73639.72;10288618;28;20210;-64
2023/09/08 20:26:53;;;;;;;9.75;5.80;;;;;;;-145.68;88.60;73631.72;10291095;28;20587;-64
2023/09/08 20:31:54;;;;;;;7.70;6.00;;;;;;;-145.68;87.79;73627.72;10292380;28;20270;-64
2023/09/08 20:36:54;;;;;;;10.85;6.22;;;;;;;-145.68;88.33;73631.72;10288941;28;20265;-65
2023/09/08 20:41:55;;;;;;;6.97;6.00;;;;;;;-145.68;87.08;73611.72;10294417;28;20219;-64
2023/09/08 20:46:55;;;;;;;10.32;5.95;;;;;;;-145.68;86.05;73603.72;10293345;28;20215;-64
2023/09/08 20:51:55;;;;;;;8.50;4.90;;;;;;;-145.68;84.94;73579.75;10294131;28;20310;-64
2023/09/08 20:56:56;;;;;;;8.48;5.80;;;;;;;-145.68;83.65;73573.75;10321768;28;20218;-64
2023/09/08 21:01:56;;;;;;;11.35;6.63;;;;;;;-145.68;83.14;73573.75;10293549;28;20214;-63
2023/09/08 21:06:56;;;;;;;7.03;5.30;;;;;;;-145.68;83.01;73565.75;10293518;28;20214;-64
2023/09/08 21:11:57;;;;;;;6.18;5.18;;;;;;;-145.68;82.28;73573.75;10294770;28;20197;-64
2023/09/08 21:16:57;;;;;;;6.80;5.32;;;;;;;-145.68;81.41;73549.75;10356824;22;21595;-69
2023/09/08 21:21:57;;;;;;;9.98;5.95;;;;;;;-145.68;81.25;73557.75;10370048;28;20213;-70
2023/09/08 21:26:58;;;;;;;12.32;5.97;;;;;;;-145.68;81.92;73571.75;10373326;28;20213;-70
2023/09/08 21:31:58;;;;;;;7.47;5.20;;;;;;;-145.68;83.17;73593.75;10374248;28;20189;-70
2023/09/08 21:36:58;;;;;;;8.60;5.43;;;;;;;-145.68;85.21;73603.72;10382599;28;20682;-71
2023/09/08 21:42:01;;;;;;;7.97;5.28;;;;;;;-145.68;82.70;73561.75;10411768;28;20584;-71
2023/09/08 21:47:01;;;;;;;8.20;5.43;;;;;;;-145.68;79.80;73539.78;10411842;28;20237;-72
2023/09/08 21:52:02;;;;;;;7.00;5.00;;;;;;;-145.68;78.79;73527.78;10411628;28;20291;-71
2023/09/08 21:57:02;;;;;;;10.45;5.75;;;;;;;-145.68;78.95;73527.78;10411116;28;20212;-70
2023/09/08 22:02:04;;;;;;;8.02;5.50;;;;;;;-145.68;78.61;73531.78;10411228;28;20216;-71
2023/09/08 22:07:04;;;;;;;7.10;5.80;;;;;;;-145.68;77.88;73525.78;10410858;28;20208;-71
2023/09/08 22:12:05;;;;;;;9.68;5.35;;;;;;;-145.68;78.28;73529.78;10411011;28;20196;-71
2023/09/08 22:17:05;;;;;;;7.88;5.60;;;;;;;-145.68;77.45;73511.78;10410253;28;20243;-72
2023/09/08 22:22:07;;;;;;;6.55;4.97;;;;;;;-145.68;76.21;73505.78;10410486;28;20223;-70
2023/09/08 22:27:08;;;;;;;9.35;5.60;;;;;;;-145.68;75.32;73485.81;10410166;28;20222;-70
2023/09/08 22:32:08;;;;;;;7.05;5.25;;;;;;;-145.68;75.59;73501.78;10410094;28;20191;-71
2023/09/08 22:37:08;;;;;;;7.18;5.22;;;;;;;-145.68;75.34;73483.81;10407645;28;20598;-71
2023/09/08 22:42:09;;;;;;;9.80;5.13;;;;;;;-145.68;75.02;73483.81;10371710;28;20217;-72